createdAt,value
2023-02-28T00:01:34.382Z,10.10
2023-02-28T00:04:03.144Z,11.10
2023-02-28T00:06:31.087Z,12.20
2023-02-28T00:08:59.274Z,12.50
2023-02-28T00:11:27.939Z,13.30
2023-02-28T00:13:56.850Z,12.60
2023-02-28T00:16:25.137Z,13.60
2023-02-28T00:18:53.555Z,13.70
2023-02-28T00:21:22.493Z,15.40
2023-02-28T00:23:50.783Z,14.20
2023-02-28T00:26:21.346Z,14.90
2023-02-28T00:28:53.925Z,14.40
2023-02-28T00:31:21.968Z,14.60
2023-02-28T00:33:50.372Z,14.90
2023-02-28T00:36:18.347Z,13.20
2023-02-28T00:38:46.641Z,14.40
2023-02-28T00:41:14.845Z,15.10
2023-02-28T00:43:43.730Z,13.10
2023-02-28T00:46:12.872Z,13.70
2023-02-28T00:48:41.187Z,11.70
2023-02-28T00:51:09.572Z,11.80
2023-02-28T00:53:37.654Z,10.60
2023-02-28T00:56:06.483Z,11.00
2023-02-28T00:58:34.942Z,10.60
2023-02-28T01:01:03.491Z,10.50
2023-02-28T01:03:33.232Z,10.20
2023-02-28T01:06:01.492Z,9.80
2023-02-28T01:08:29.509Z,10.60
2023-02-28T01:10:58.196Z,9.10
2023-02-28T01:13:26.652Z,9.20
2023-02-28T01:15:57.910Z,8.40
2023-02-28T01:18:27.137Z,8.60
2023-02-28T01:20:55.833Z,8.80
2023-02-28T01:23:25.098Z,8.10
2023-02-28T01:25:53.922Z,11.10
2023-02-28T01:28:22.579Z,12.20
2023-02-28T01:30:52.798Z,11.50
2023-02-28T01:33:21.441Z,9.60
2023-02-28T01:35:50.087Z,11.60
2023-02-28T01:38:23.119Z,12.30
2023-02-28T01:40:52.359Z,11.70
2023-02-28T01:43:28.205Z,11.80
2023-02-28T01:45:58.916Z,12.00
2023-02-28T01:48:37.893Z,11.90
2023-02-28T01:51:13.332Z,13.60
2023-02-28T01:53:52.599Z,13.20
2023-02-28T01:56:25.610Z,12.50
2023-02-28T01:58:55.586Z,8.50
2023-02-28T02:01:28.292Z,10.30
2023-02-28T02:04:01.652Z,9.50
2023-02-28T02:06:35.563Z,14.50
2023-02-28T02:09:04.456Z,14.10
2023-02-28T02:11:33.550Z,12.20
2023-02-28T02:14:33.897Z,14.40
2023-02-28T02:17:08.287Z,13.20
2023-02-28T02:20:18.468Z,11.40
2023-02-28T02:23:20.906Z,13.00
2023-02-28T02:25:55.503Z,13.00
2023-02-28T02:28:58.543Z,12.20
2023-02-28T02:31:26.993Z,14.30
2023-02-28T02:34:29.596Z,13.50
2023-02-28T02:37:05.253Z,13.90
2023-02-28T02:39:45.829Z,13.10
2023-02-28T02:42:23.629Z,14.10
2023-02-28T02:44:59.192Z,13.00
2023-02-28T02:47:32.157Z,13.10
2023-02-28T02:50:06.511Z,11.90
2023-02-28T02:52:41.961Z,14.10
2023-02-28T02:55:13.210Z,13.20
2023-02-28T02:57:53.733Z,13.30
2023-02-28T03:00:26.829Z,13.10
2023-02-28T03:02:57.477Z,13.40
2023-02-28T03:05:31.116Z,13.40
2023-02-28T03:07:59.319Z,13.80
2023-02-28T03:10:28.520Z,13.50
2023-02-28T03:13:42.018Z,13.20
2023-02-28T03:16:37.451Z,13.00
2023-02-28T03:19:31.972Z,14.10
2023-02-28T03:22:14.596Z,13.90
2023-02-28T03:24:46.506Z,13.10
2023-02-28T03:27:26.554Z,13.00
2023-02-28T03:30:00.891Z,12.10
2023-02-28T03:32:36.789Z,13.40
2023-02-28T03:35:12.266Z,11.60
2023-02-28T03:37:45.055Z,11.90
2023-02-28T03:40:18.503Z,11.40
2023-02-28T03:42:52.270Z,10.80
2023-02-28T03:45:29.063Z,11.00
2023-02-28T03:48:03.840Z,11.70
2023-02-28T03:50:42.158Z,12.40
2023-02-28T03:53:15.617Z,11.40
2023-02-28T03:55:48.444Z,11.20
2023-02-28T03:58:48.526Z,13.40
2023-02-28T04:01:42.561Z,13.30
2023-02-28T04:04:12.566Z,14.10
2023-02-28T04:06:41.580Z,11.90
2023-02-28T04:11:50.153Z,10.60
2023-02-28T04:14:18.919Z,11.40
2023-02-28T04:16:47.043Z,13.10
2023-02-28T04:19:15.973Z,15.40
2023-02-28T04:21:50.571Z,15.20
2023-02-28T04:24:27.770Z,15.80
2023-02-28T04:26:57.911Z,14.60
2023-02-28T04:29:31.517Z,15.60
2023-02-28T04:32:01.312Z,16.30
2023-02-28T04:34:31.964Z,15.80
2023-02-28T04:37:17.053Z,15.80
2023-02-28T04:39:45.223Z,15.80
2023-02-28T04:42:14.414Z,15.10
2023-02-28T04:44:42.583Z,14.60
2023-02-28T04:47:10.808Z,15.00
2023-02-28T04:49:39.370Z,15.20
2023-02-28T04:52:08.651Z,15.40
2023-02-28T04:54:36.926Z,15.70
2023-02-28T04:57:05.794Z,13.30
2023-02-28T04:59:34.380Z,15.40
2023-02-28T05:02:08.200Z,14.50
2023-02-28T05:04:37.207Z,15.10
2023-02-28T05:07:05.440Z,16.80
2023-02-28T05:09:34.378Z,17.60
2023-02-28T05:12:02.582Z,18.20
2023-02-28T05:14:30.692Z,15.50
2023-02-28T05:16:59.115Z,16.80
2023-02-28T05:19:27.380Z,14.70
2023-02-28T05:21:56.596Z,17.30
2023-02-28T05:24:24.922Z,17.70
2023-02-28T05:26:54.956Z,19.30
2023-02-28T05:29:23.741Z,18.90
2023-02-28T05:31:52.346Z,17.00
2023-02-28T05:34:20.655Z,15.20
2023-02-28T05:36:48.963Z,16.40
2023-02-28T05:39:17.138Z,17.30
2023-02-28T05:41:45.377Z,15.40
2023-02-28T05:44:13.671Z,15.70
2023-02-28T05:46:42.033Z,16.50
2023-02-28T05:49:10.486Z,15.20
2023-02-28T05:51:41.087Z,18.00
2023-02-28T05:54:10.052Z,17.70
2023-02-28T05:56:41.088Z,13.90
2023-02-28T05:59:09.394Z,15.50
2023-02-28T06:01:40.786Z,12.90
2023-02-28T06:04:19.465Z,11.10
2023-02-28T06:06:54.311Z,13.50
2023-02-28T06:09:22.596Z,15.70
2023-02-28T06:11:50.501Z,14.30
2023-02-28T06:14:20.698Z,14.80
2023-02-28T06:16:48.800Z,16.00
2023-02-28T06:19:17.166Z,13.80
2023-02-28T06:21:45.324Z,14.30
2023-02-28T06:24:13.416Z,15.90
2023-02-28T06:26:41.712Z,15.70
2023-02-28T06:29:09.820Z,16.20
2023-02-28T06:31:39.469Z,16.80
2023-02-28T06:34:07.453Z,16.90
2023-02-28T06:36:35.516Z,18.10
2023-02-28T06:39:03.623Z,17.80
2023-02-28T06:41:44.516Z,17.70
2023-02-28T06:44:20.291Z,15.50
2023-02-28T06:46:48.427Z,16.30
2023-02-28T06:49:17.492Z,17.60
2023-02-28T06:51:46.335Z,16.60
2023-02-28T06:54:15.327Z,17.30
2023-02-28T06:56:43.453Z,17.00
2023-02-28T06:59:11.658Z,16.30
2023-02-28T07:01:40.936Z,17.00
2023-02-28T07:04:09.488Z,15.10
2023-02-28T07:06:38.416Z,16.50
2023-02-28T07:09:06.979Z,19.20
2023-02-28T07:11:35.395Z,15.60
2023-02-28T07:14:04.149Z,18.70
2023-02-28T07:16:32.415Z,17.60
2023-02-28T07:19:00.894Z,19.00
2023-02-28T07:21:29.604Z,17.20
2023-02-28T07:23:58.755Z,14.90
2023-02-28T07:26:27.462Z,16.10
2023-02-28T07:28:56.060Z,15.50
2023-02-28T07:31:24.930Z,17.60
2023-02-28T07:33:55.089Z,15.80
2023-02-28T07:36:23.767Z,16.70
2023-02-28T07:38:52.757Z,16.80
2023-02-28T07:41:22.952Z,15.30
2023-02-28T07:43:51.013Z,17.50
2023-02-28T07:46:22.542Z,18.40
2023-02-28T07:48:51.759Z,17.90
2023-02-28T07:51:20.444Z,16.90
2023-02-28T07:53:48.764Z,18.20
2023-02-28T07:56:17.322Z,17.70
2023-02-28T07:58:45.741Z,15.10
2023-02-28T08:01:14.894Z,16.90
2023-02-28T08:03:43.397Z,17.20
2023-02-28T08:06:18.668Z,16.50
2023-02-28T08:11:17.660Z,17.10
2023-02-28T08:13:47.119Z,18.60
2023-02-28T08:16:23.434Z,20.90
2023-02-28T08:18:53.819Z,21.20
2023-02-28T08:21:22.831Z,22.10
2023-02-28T08:23:52.266Z,16.40
2023-02-28T08:26:21.823Z,21.20
2023-02-28T08:28:50.921Z,15.70
2023-02-28T08:31:19.728Z,13.30
2023-02-28T08:33:50.896Z,16.50
2023-02-28T08:36:19.196Z,16.90
2023-02-28T08:38:47.819Z,16.80
2023-02-28T08:41:16.015Z,16.90
2023-02-28T08:43:44.692Z,17.20
2023-02-28T08:46:15.105Z,16.30
2023-02-28T08:48:43.832Z,17.20
2023-02-28T08:51:19.839Z,17.00
2023-02-28T08:53:50.544Z,16.70
2023-02-28T08:56:19.652Z,15.80
2023-02-28T08:58:50.361Z,15.10
2023-02-28T09:01:24.953Z,17.00
2023-02-28T09:03:53.364Z,14.10
2023-02-28T09:06:24.520Z,15.90
2023-02-28T09:08:52.689Z,16.80
2023-02-28T09:11:21.105Z,17.00
2023-02-28T09:13:49.556Z,18.00
2023-02-28T09:16:19.024Z,16.80
2023-02-28T09:18:47.401Z,16.10
2023-02-28T09:21:19.312Z,17.70
2023-02-28T09:23:50.682Z,15.60
2023-02-28T09:26:23.324Z,17.90
2023-02-28T09:28:52.728Z,17.00
2023-02-28T09:31:27.609Z,18.40
2023-02-28T09:33:58.953Z,19.30
2023-02-28T09:36:41.787Z,15.10
2023-02-28T09:39:13.626Z,16.60
2023-02-28T09:41:49.803Z,17.40
2023-02-28T09:44:28.446Z,16.10
2023-02-28T09:47:10.604Z,16.90
2023-02-28T09:49:46.856Z,17.60
2023-02-28T09:52:20.550Z,17.20
2023-02-28T09:54:50.209Z,17.50
2023-02-28T09:57:37.901Z,18.40
2023-02-28T10:00:17.513Z,18.10
2023-02-28T10:03:24.874Z,18.40
2023-02-28T10:06:11.676Z,19.20
2023-02-28T10:08:49.556Z,16.10
2023-02-28T10:11:21.888Z,15.70
2023-02-28T10:14:07.144Z,15.80
2023-02-28T10:16:49.017Z,17.20
2023-02-28T10:19:36.654Z,15.40
2023-02-28T10:22:13.169Z,15.60
2023-02-28T10:24:52.642Z,16.60
2023-02-28T10:27:23.861Z,15.10
2023-02-28T10:29:58.045Z,16.50
2023-02-28T10:32:31.252Z,16.70
2023-02-28T10:35:16.225Z,16.60
2023-02-28T10:37:48.524Z,17.10
2023-02-28T10:40:19.728Z,15.10
2023-02-28T10:43:18.046Z,16.50
2023-02-28T10:46:16.092Z,14.80
2023-02-28T10:49:13.517Z,29.70
2023-02-28T10:51:42.634Z,16.20
2023-02-28T10:54:20.852Z,16.20
2023-02-28T10:57:20.626Z,17.60
2023-02-28T10:59:54.107Z,17.60
2023-02-28T11:02:39.479Z,17.90
2023-02-28T11:05:35.383Z,18.00
2023-02-28T11:08:06.924Z,18.30
2023-02-28T11:10:35.891Z,17.30
2023-02-28T11:13:04.887Z,19.20
2023-02-28T11:15:35.995Z,19.40
2023-02-28T11:18:13.685Z,19.60
2023-02-28T11:20:42.470Z,19.00
2023-02-28T11:23:15.236Z,19.30
2023-02-28T11:25:51.766Z,19.50
2023-02-28T11:28:26.667Z,18.80
2023-02-28T11:31:13.436Z,18.80
2023-02-28T11:33:52.743Z,17.90
2023-02-28T11:36:28.142Z,19.00
2023-02-28T11:39:03.611Z,19.00
2023-02-28T11:41:44.365Z,19.00
2023-02-28T11:44:28.414Z,18.30
2023-02-28T11:47:23.466Z,18.50
2023-02-28T11:50:17.899Z,18.20
2023-02-28T11:53:01.221Z,19.50
2023-02-28T11:55:45.676Z,18.70
2023-02-28T11:58:26.281Z,16.60
2023-02-28T12:01:15.803Z,19.50
2023-02-28T12:03:59.209Z,18.60
2023-02-28T12:06:46.044Z,19.70
2023-02-28T12:09:42.836Z,20.20
2023-02-28T12:12:33.198Z,19.20
2023-02-28T12:15:20.040Z,19.90
2023-02-28T12:17:53.627Z,20.70
2023-02-28T12:20:46.440Z,19.60
2023-02-28T12:23:27.151Z,18.00
2023-02-28T12:26:16.924Z,20.50
2023-02-28T12:29:00.264Z,18.50
2023-02-28T12:31:35.518Z,19.50
2023-02-28T12:34:19.785Z,21.10
2023-02-28T12:36:49.838Z,22.60
2023-02-28T12:39:27.145Z,21.70
2023-02-28T12:42:03.621Z,22.90
2023-02-28T12:45:11.296Z,20.40
2023-02-28T12:47:43.644Z,24.50
2023-02-28T12:50:13.349Z,29.60
2023-02-28T12:52:50.651Z,32.40
2023-02-28T12:55:27.973Z,31.00
2023-02-28T12:58:24.304Z,32.50
2023-02-28T13:01:02.666Z,31.20
2023-02-28T13:03:40.004Z,31.20
2023-02-28T13:06:36.989Z,31.20
2023-02-28T13:09:07.535Z,32.00
2023-02-28T13:11:43.640Z,32.80
2023-02-28T13:14:21.152Z,32.70
2023-02-28T13:16:52.266Z,32.10
2023-02-28T13:19:24.555Z,33.30
2023-02-28T13:21:53.613Z,30.50
2023-02-28T13:24:46.398Z,42.50
2023-02-28T13:27:40.242Z,33.30
2023-02-28T13:30:47.104Z,35.80
2023-02-28T13:33:35.305Z,33.30
2023-02-28T13:36:16.802Z,32.40
2023-02-28T13:39:32.468Z,32.40
2023-02-28T13:42:31.610Z,30.60
2023-02-28T13:45:06.596Z,29.30
2023-02-28T13:47:50.793Z,30.10
2023-02-28T13:50:26.705Z,28.40
2023-02-28T13:53:16.571Z,28.90
2023-02-28T13:56:08.770Z,29.60
2023-02-28T13:58:51.207Z,31.40
2023-02-28T14:01:33.479Z,31.30
2023-02-28T14:04:40.381Z,30.90
2023-02-28T14:07:11.047Z,31.90
2023-02-28T14:09:47.441Z,30.80
2023-02-28T14:12:55.942Z,30.30
2023-02-28T14:15:41.792Z,32.90
2023-02-28T14:18:37.666Z,33.10
2023-02-28T14:21:22.580Z,32.50
2023-02-28T14:24:22.442Z,32.80
2023-02-28T14:27:26.379Z,31.80
2023-02-28T14:30:08.168Z,31.00
2023-02-28T14:32:47.684Z,28.90
2023-02-28T14:35:38.021Z,30.00
2023-02-28T14:38:14.529Z,28.20
2023-02-28T14:40:43.113Z,28.20
2023-02-28T14:43:49.672Z,28.10
2023-02-28T14:46:19.726Z,31.00
2023-02-28T14:48:50.752Z,30.30
2023-02-28T14:51:24.624Z,30.60
2023-02-28T14:53:59.529Z,32.40
2023-02-28T14:56:39.764Z,32.40
2023-02-28T14:59:28.090Z,32.70
2023-02-28T15:02:18.360Z,33.90
2023-02-28T15:04:58.733Z,31.20
2023-02-28T15:07:30.649Z,33.00
2023-02-28T15:10:20.877Z,33.00
2023-02-28T15:12:54.185Z,31.90
2023-02-28T15:15:31.975Z,34.20
2023-02-28T15:18:16.982Z,32.40
2023-02-28T15:20:46.449Z,28.80
2023-02-28T15:23:16.912Z,28.20
2023-02-28T15:25:45.714Z,27.80
2023-02-28T15:28:20.757Z,27.40
2023-02-28T15:31:55.849Z,26.40
2023-02-28T15:34:42.338Z,29.00
2023-02-28T15:37:33.325Z,28.10
2023-02-28T15:40:38.848Z,27.80
2023-02-28T15:43:32.167Z,29.00
2023-02-28T15:46:02.177Z,29.90
2023-02-28T15:48:38.354Z,27.80
2023-02-28T15:51:12.661Z,29.60
2023-02-28T15:53:48.520Z,29.20
2023-02-28T15:56:26.270Z,29.70
2023-02-28T15:59:06.783Z,30.30
2023-02-28T16:01:39.005Z,29.90
2023-02-28T16:04:19.800Z,29.40
2023-02-28T16:07:13.893Z,29.80
2023-02-28T16:09:43.711Z,28.60
2023-02-28T16:12:14.699Z,28.80
2023-02-28T16:14:43.825Z,27.00
2023-02-28T16:17:28.354Z,27.00
2023-02-28T16:19:57.933Z,26.50
2023-02-28T16:22:27.192Z,25.50
2023-02-28T16:24:55.436Z,24.30
2023-02-28T16:27:36.407Z,25.60
2023-02-28T16:30:07.152Z,25.40
2023-02-28T16:32:37.758Z,27.40
2023-02-28T16:35:10.880Z,27.60
2023-02-28T16:37:39.142Z,26.90
2023-02-28T16:40:09.400Z,26.90
2023-02-28T16:42:39.514Z,29.10
2023-02-28T16:45:12.109Z,28.40
2023-02-28T16:47:40.248Z,28.20
2023-02-28T16:50:29.725Z,28.60
2023-02-28T16:52:57.963Z,28.40
2023-02-28T16:55:28.319Z,30.00
2023-02-28T16:57:59.922Z,28.80
2023-02-28T17:00:30.401Z,29.20
2023-02-28T17:03:00.590Z,28.70
2023-02-28T17:05:36.353Z,32.00
2023-02-28T17:08:05.189Z,32.50
2023-02-28T17:10:33.726Z,33.00
2023-02-28T17:13:14.182Z,33.20
2023-02-28T17:15:44.431Z,32.00
2023-02-28T17:18:20.024Z,30.50
2023-02-28T17:20:49.123Z,32.30
2023-02-28T17:23:17.686Z,28.80
2023-02-28T17:25:57.486Z,29.50
2023-02-28T17:28:26.370Z,29.70
2023-02-28T17:30:54.790Z,29.80
2023-02-28T17:33:23.285Z,30.90
2023-02-28T17:35:52.168Z,32.10
2023-02-28T17:38:21.133Z,32.00
2023-02-28T17:40:49.853Z,32.80
2023-02-28T17:43:17.960Z,34.60
2023-02-28T17:45:46.716Z,34.30
2023-02-28T17:48:15.180Z,34.90
2023-02-28T17:50:43.292Z,35.70
2023-02-28T17:53:11.465Z,34.30
2023-02-28T17:55:39.943Z,35.20
2023-02-28T17:58:13.064Z,35.00
2023-02-28T18:00:41.961Z,35.70
2023-02-28T18:03:10.894Z,38.00
2023-02-28T18:05:39.673Z,35.50
2023-02-28T18:08:12.249Z,34.10
2023-02-28T18:10:40.421Z,33.90
2023-02-28T18:13:08.864Z,34.70
2023-02-28T18:15:38.431Z,33.40
2023-02-28T18:18:07.884Z,32.00
2023-02-28T18:20:36.614Z,33.40
2023-02-28T18:23:04.981Z,30.60
2023-02-28T18:25:33.359Z,29.80
2023-02-28T18:28:02.403Z,30.90
2023-02-28T18:30:36.372Z,33.40
2023-02-28T18:33:04.846Z,34.80
2023-02-28T18:35:36.151Z,33.20
2023-02-28T18:38:19.583Z,34.40
2023-02-28T18:40:59.469Z,33.70
2023-02-28T18:43:29.801Z,35.20
2023-02-28T18:45:58.461Z,34.50
2023-02-28T18:48:26.586Z,34.40
2023-02-28T18:50:54.938Z,34.30
2023-02-28T18:53:23.832Z,32.80
2023-02-28T18:55:52.077Z,36.90
2023-02-28T18:58:20.770Z,35.00
2023-02-28T19:00:52.026Z,33.10
2023-02-28T19:03:20.677Z,32.40
2023-02-28T19:05:50.724Z,32.40
2023-02-28T19:08:19.056Z,32.20
2023-02-28T19:10:47.091Z,31.30
2023-02-28T19:13:15.546Z,30.60
2023-02-28T19:15:44.107Z,30.30
2023-02-28T19:18:13.512Z,31.30
2023-02-28T19:20:41.975Z,33.40
2023-02-28T19:23:11.894Z,32.30
2023-02-28T19:25:43.520Z,33.60
2023-02-28T19:28:11.766Z,34.30
2023-02-28T19:30:40.844Z,36.50
2023-02-28T19:33:09.133Z,34.50
2023-02-28T19:35:41.436Z,37.10
2023-02-28T19:38:10.425Z,37.00
2023-02-28T19:40:39.819Z,36.70
2023-02-28T19:43:08.858Z,34.80
2023-02-28T19:45:38.194Z,36.00
2023-02-28T19:48:06.709Z,36.90
2023-02-28T19:50:34.742Z,35.90
2023-02-28T19:53:02.793Z,35.90
2023-02-28T19:55:30.960Z,36.90
2023-02-28T19:57:59.351Z,36.90
2023-02-28T20:00:27.933Z,39.10
2023-02-28T20:02:56.370Z,37.70
2023-02-28T20:05:27.848Z,35.60
2023-02-28T20:07:56.405Z,34.50
2023-02-28T20:10:25.309Z,35.00
2023-02-28T20:12:53.764Z,35.70
2023-02-28T20:15:22.484Z,33.50
2023-02-28T20:17:51.366Z,33.70
2023-02-28T20:20:19.966Z,32.60
2023-02-28T20:22:48.602Z,32.30
2023-02-28T20:25:17.214Z,31.70
2023-02-28T20:27:45.346Z,32.30
2023-02-28T20:30:13.610Z,32.50
2023-02-28T20:32:41.951Z,35.30
2023-02-28T20:35:11.824Z,36.50
2023-02-28T20:37:40.329Z,36.50
2023-02-28T20:40:10.211Z,34.00
2023-02-28T20:42:38.252Z,36.90
2023-02-28T20:45:06.708Z,39.20
2023-02-28T20:47:34.893Z,38.40
2023-02-28T20:50:03.204Z,38.80
2023-02-28T20:52:31.528Z,40.20
2023-02-28T20:54:59.746Z,40.30
2023-02-28T20:57:30.706Z,38.60
2023-02-28T21:00:02.051Z,37.80
2023-02-28T21:02:31.131Z,37.20
2023-02-28T21:04:59.682Z,34.10
2023-02-28T21:07:29.306Z,35.20
2023-02-28T21:09:57.842Z,34.20
2023-02-28T21:12:26.067Z,32.50
2023-02-28T21:14:54.290Z,32.20
2023-02-28T21:17:22.424Z,31.30
2023-02-28T21:19:50.755Z,31.90
2023-02-28T21:22:18.957Z,35.20
2023-02-28T21:24:47.863Z,37.30
2023-02-28T21:27:16.875Z,39.80
2023-02-28T21:29:45.143Z,40.20
2023-02-28T21:32:14.864Z,39.60
2023-02-28T21:34:43.522Z,40.10
2023-02-28T21:37:11.691Z,38.80
2023-02-28T21:39:39.797Z,38.40
2023-02-28T21:42:08.661Z,37.50
2023-02-28T21:44:39.109Z,36.60
2023-02-28T21:47:07.281Z,35.40
2023-02-28T21:49:35.456Z,33.70
2023-02-28T21:52:03.756Z,35.00
2023-02-28T21:54:31.903Z,33.60
2023-02-28T21:57:02.193Z,34.10
2023-02-28T21:59:30.700Z,36.20
2023-02-28T22:01:59.142Z,36.70
2023-02-28T22:04:27.457Z,39.30
2023-02-28T22:06:59.860Z,40.10
2023-02-28T22:09:28.827Z,40.30
2023-02-28T22:11:58.160Z,42.00
2023-02-28T22:14:26.227Z,41.10
2023-02-28T22:16:57.062Z,41.00
2023-02-28T22:19:27.761Z,39.90
2023-02-28T22:21:58.140Z,41.30
2023-02-28T22:24:26.948Z,41.20
2023-02-28T22:26:55.267Z,41.50
2023-02-28T22:29:23.905Z,42.90
2023-02-28T22:31:52.187Z,43.90
2023-02-28T22:34:20.709Z,44.80
2023-02-28T22:36:48.938Z,45.40
2023-02-28T22:39:17.440Z,45.90
2023-02-28T22:41:45.644Z,43.60
2023-02-28T22:44:14.008Z,42.30
2023-02-28T22:46:42.251Z,41.60
2023-02-28T22:49:12.958Z,42.90
2023-02-28T22:51:41.178Z,39.70
2023-02-28T22:54:09.722Z,38.80
2023-02-28T22:56:38.696Z,38.90
2023-02-28T22:59:07.057Z,38.90
2023-02-28T23:01:36.142Z,37.80
2023-02-28T23:04:04.650Z,41.90
2023-02-28T23:06:35.439Z,41.10
2023-02-28T23:09:08.643Z,41.00
2023-02-28T23:11:40.927Z,43.80
2023-02-28T23:14:12.929Z,44.20
2023-02-28T23:16:47.285Z,42.40
2023-02-28T23:19:36.167Z,41.30
2023-02-28T23:22:05.748Z,43.20
2023-02-28T23:24:35.342Z,41.40
2023-02-28T23:27:05.640Z,42.80
2023-02-28T23:29:35.556Z,40.80
2023-02-28T23:32:03.905Z,39.30
2023-02-28T23:34:32.269Z,39.50
2023-02-28T23:37:02.085Z,39.00
2023-02-28T23:39:31.977Z,37.80
2023-02-28T23:42:00.354Z,36.70
2023-02-28T23:44:28.723Z,38.30
2023-02-28T23:46:57.573Z,36.80
2023-02-28T23:49:26.070Z,35.00
2023-02-28T23:51:55.244Z,35.50
2023-02-28T23:54:23.476Z,34.30
2023-02-28T23:56:51.917Z,34.80
2023-02-28T23:59:20.063Z,36.10
